Time;durP1;ratioP1;P1;durP2;ratioP2;P2;SDS_P1;SDS_P2;PMS_P1;PMS_P2;Temp;Humidity;BMP_temperature;BMP_pressure;BME280_temperature;BME280_humidity;BME280_pressure;Samples;Min_cycle;Max_cycle;Signal;HPM_P1;HPM_P2
2023/04/30 00:01:39;;;;;;;18.58;12.00;;;13.20;99.90;;;;;;5022525;28;20465;-61
2023/04/30 00:04:07;;;;;;;19.70;12.25;;;13.20;99.90;;;;;;5031307;28;20053;-62
2023/04/30 00:06:35;;;;;;;19.02;12.55;;;13.20;99.90;;;;;;5035016;28;20484;-60
2023/04/30 00:09:03;;;;;;;18.50;12.60;;;13.10;99.90;;;;;;5037882;28;20037;-61
2023/04/30 00:11:31;;;;;;;20.13;13.05;;;13.10;99.90;;;;;;5012634;28;20049;-60
2023/04/30 00:13:58;;;;;;;18.58;13.05;;;13.10;99.90;;;;;;5038230;28;20056;-60
2023/04/30 00:16:26;;;;;;;18.60;12.38;;;13.10;99.90;;;;;;5033133;28;20055;-60
2023/04/30 00:18:58;;;;;;;25.60;14.30;;;13.10;99.90;;;;;;5043133;28;20048;-63
2023/04/30 00:21:26;;;;;;;20.50;14.25;;;13.10;99.90;;;;;;5049607;28;20539;-62
2023/04/30 00:23:54;;;;;;;22.77;14.63;;;13.10;99.90;;;;;;5041464;28;20048;-61
2023/04/30 00:26:21;;;;;;;23.42;15.55;;;13.00;99.90;;;;;;5045725;28;20045;-61
2023/04/30 00:28:49;;;;;;;24.52;14.48;;;13.00;99.90;;;;;;5040069;28;20400;-61
2023/04/30 00:31:17;;;;;;;24.77;15.07;;;13.00;99.90;;;;;;5048856;28;20381;-61
2023/04/30 00:33:44;;;;;;;23.70;15.60;;;13.00;99.90;;;;;;5042352;28;20409;-61
2023/04/30 00:36:12;;;;;;;23.73;14.82;;;13.00;99.90;;;;;;5008037;28;20056;-61
2023/04/30 00:38:40;;;;;;;25.75;14.95;;;13.00;99.90;;;;;;5011060;28;20046;-61
2023/04/30 00:41:08;;;;;;;23.08;15.13;;;13.00;99.90;;;;;;5030977;28;20067;-63
2023/04/30 00:43:36;;;;;;;21.52;15.13;;;13.00;99.90;;;;;;5048015;28;20049;-60
2023/04/30 00:46:05;;;;;;;25.77;15.55;;;13.00;99.90;;;;;;5033544;28;20041;-61
2023/04/30 00:48:33;;;;;;;24.95;15.43;;;13.00;99.90;;;;;;5040485;28;20489;-61
2023/04/30 00:51:02;;;;;;;25.77;16.27;;;13.00;99.90;;;;;;5023885;28;20052;-61
2023/04/30 00:53:31;;;;;;;23.52;14.77;;;13.00;99.90;;;;;;5050983;28;20049;-62
2023/04/30 00:55:58;;;;;;;26.75;15.57;;;13.00;99.90;;;;;;5067447;28;20056;-61
2023/04/30 00:58:26;;;;;;;26.17;16.73;;;13.00;99.90;;;;;;5059396;28;20502;-61
2023/04/30 01:00:55;;;;;;;23.73;15.70;;;13.00;99.90;;;;;;5063753;28;20051;-61
2023/04/30 01:03:23;;;;;;;24.98;15.68;;;12.80;99.90;;;;;;5046660;28;20079;-61
2023/04/30 01:05:52;;;;;;;24.25;15.10;;;12.90;99.90;;;;;;5053029;28;20633;-60
2023/04/30 01:08:20;;;;;;;25.15;15.27;;;12.80;99.90;;;;;;5050343;28;20045;-60
2023/04/30 01:10:56;;;;;;;22.95;15.75;;;12.90;99.90;;;;;;5055243;28;20033;-61
2023/04/30 01:13:52;;;;;;;28.10;16.00;;;12.90;99.90;;;;;;5065865;28;20044;-61
2023/04/30 01:16:27;;;;;;;26.38;16.27;;;12.90;99.90;;;;;;5051975;28;20037;-60
2023/04/30 01:19:03;;;;;;;23.08;14.73;;;12.80;99.90;;;;;;5056944;28;20041;-61
2023/04/30 01:21:32;;;;;;;24.10;15.13;;;12.80;99.90;;;;;;5048136;28;20421;-61
2023/04/30 01:24:34;;;;;;;25.15;16.25;;;12.80;99.90;;;;;;5047917;28;20060;-61
2023/04/30 01:27:31;;;;;;;27.35;15.60;;;12.80;99.90;;;;;;5062064;28;20049;-60
2023/04/30 01:30:02;;;;;;;28.63;16.50;;;12.80;99.90;;;;;;5065420;28;20069;-61
2023/04/30 01:32:30;;;;;;;27.52;16.10;;;12.80;99.90;;;;;;5053923;28;20052;-60
2023/04/30 01:34:57;;;;;;;25.98;15.95;;;12.70;99.90;;;;;;5061978;28;20044;-61
2023/04/30 01:37:41;;;;;;;26.42;16.23;;;12.70;99.90;;;;;;5050998;28;20048;-61
2023/04/30 01:40:29;;;;;;;25.33;16.38;;;12.80;99.90;;;;;;5069420;28;20466;-60
2023/04/30 01:43:15;;;;;;;24.98;16.42;;;12.70;99.90;;;;;;5065263;28;20033;-60
2023/04/30 01:46:08;;;;;;;29.08;16.63;;;12.70;99.90;;;;;;5065267;28;20040;-60
2023/04/30 01:48:55;;;;;;;27.50;16.35;;;12.70;99.90;;;;;;5033435;28;20059;-61
2023/04/30 01:51:47;;;;;;;28.95;16.25;;;12.70;99.90;;;;;;5041350;28;20052;-60
2023/04/30 01:54:23;;;;;;;26.52;16.25;;;12.70;99.90;;;;;;5042123;28;20053;-60
2023/04/30 01:57:22;;;;;;;26.10;15.32;;;12.70;99.90;;;;;;5031928;28;20049;-59
2023/04/30 01:59:50;;;;;;;26.92;15.45;;;12.60;99.90;;;;;;5050670;28;20041;-60
2023/04/30 02:02:19;;;;;;;25.42;15.73;;;12.60;99.90;;;;;;5015415;28;20527;-59
2023/04/30 02:04:46;;;;;;;29.80;15.88;;;12.60;99.90;;;;;;5047961;28;20037;-60
2023/04/30 02:07:30;;;;;;;27.10;15.27;;;12.60;99.90;;;;;;5013008;28;20052;-60
2023/04/30 02:09:58;;;;;;;29.13;14.90;;;12.60;99.90;;;;;;5013592;28;20512;-60
2023/04/30 02:12:26;;;;;;;26.38;15.38;;;12.60;99.90;;;;;;5017049;28;20043;-60
2023/04/30 02:14:54;;;;;;;25.73;16.15;;;12.60;99.90;;;;;;5027242;28;20044;-61
2023/04/30 02:17:22;;;;;;;27.35;16.05;;;12.60;99.90;;;;;;5025707;28;20052;-60
2023/04/30 02:19:50;;;;;;;25.02;14.90;;;12.60;99.90;;;;;;5024589;28;20045;-61
2023/04/30 02:22:17;;;;;;;28.45;15.57;;;12.60;99.90;;;;;;5046709;28;20056;-60
2023/04/30 02:24:45;;;;;;;28.70;15.20;;;12.60;99.90;;;;;;5030659;28;20045;-59
2023/04/30 02:27:13;;;;;;;29.45;16.30;;;12.50;99.90;;;;;;5049371;28;20045;-60
2023/04/30 02:29:40;;;;;;;32.08;17.35;;;12.50;99.90;;;;;;5025134;28;20048;-60
2023/04/30 02:32:08;;;;;;;30.05;16.60;;;12.40;99.90;;;;;;5042882;28;20044;-61
2023/04/30 02:34:35;;;;;;;27.73;16.15;;;12.40;99.90;;;;;;5050310;28;20441;-61
2023/04/30 02:37:03;;;;;;;30.17;17.27;;;12.40;99.90;;;;;;5012788;28;20042;-60
2023/04/30 02:39:31;;;;;;;31.20;16.67;;;12.40;99.90;;;;;;5020745;28;20052;-60
2023/04/30 02:41:59;;;;;;;32.30;18.02;;;12.40;99.90;;;;;;5048258;28;20049;-61
2023/04/30 02:44:28;;;;;;;33.38;17.50;;;12.40;99.90;;;;;;5034087;28;20065;-59
2023/04/30 02:46:56;;;;;;;35.17;18.42;;;12.40;99.90;;;;;;5016827;28;20480;-61
2023/04/30 02:49:26;;;;;;;40.60;19.85;;;12.40;99.90;;;;;;5024208;28;20037;-60
2023/04/30 02:51:54;;;;;;;36.42;19.20;;;12.30;99.90;;;;;;5059249;28;20068;-59
2023/04/30 02:54:22;;;;;;;30.95;17.60;;;12.40;99.90;;;;;;5074242;28;20040;-60
2023/04/30 02:56:50;;;;;;;30.17;17.00;;;12.40;99.90;;;;;;5073970;28;20052;-59
2023/04/30 02:59:17;;;;;;;32.97;18.95;;;12.40;99.90;;;;;;5053976;28;20040;-60
2023/04/30 03:01:45;;;;;;;31.85;17.17;;;12.40;99.90;;;;;;5036506;28;20048;-61
2023/04/30 03:04:12;;;;;;;31.67;17.92;;;12.50;99.90;;;;;;5053738;28;20400;-62
2023/04/30 03:06:40;;;;;;;36.45;19.88;;;12.40;99.90;;;;;;5040795;28;20102;-61
2023/04/30 03:09:08;;;;;;;34.58;19.20;;;12.50;99.90;;;;;;5057190;28;20503;-61
2023/04/30 03:11:36;;;;;;;31.33;17.73;;;12.40;99.90;;;;;;5054066;28;20052;-59
2023/04/30 03:14:04;;;;;;;33.00;19.13;;;12.40;99.90;;;;;;5068512;28;20048;-58
2023/04/30 03:16:32;;;;;;;36.53;19.85;;;12.40;99.90;;;;;;5073774;28;20051;-59
2023/04/30 03:18:59;;;;;;;34.80;18.98;;;12.40;99.90;;;;;;5073770;28;20051;-61
2023/04/30 03:21:30;;;;;;;37.50;18.40;;;12.40;99.90;;;;;;5071832;28;20530;-61
2023/04/30 03:23:59;;;;;;;44.47;19.67;;;12.30;99.90;;;;;;5051239;28;20063;-61
2023/04/30 03:26:27;;;;;;;44.50;21.52;;;12.30;99.90;;;;;;5066459;28;20052;-59
2023/04/30 03:28:54;;;;;;;35.72;19.27;;;12.30;99.90;;;;;;5052193;28;20048;-58
2023/04/30 03:31:23;;;;;;;35.58;19.67;;;12.30;99.90;;;;;;5071073;28;20037;-60
2023/04/30 03:33:50;;;;;;;41.10;19.80;;;12.30;99.90;;;;;;5055197;28;20049;-60
2023/04/30 03:36:18;;;;;;;38.80;20.75;;;12.30;99.90;;;;;;5058968;28;20059;-61
2023/04/30 03:38:46;;;;;;;38.67;19.75;;;12.30;99.90;;;;;;5068587;28;20048;-61
2023/04/30 03:41:13;;;;;;;40.67;20.73;;;12.30;99.90;;;;;;5054711;28;20068;-62
2023/04/30 03:43:41;;;;;;;45.15;22.17;;;12.30;99.90;;;;;;5035902;28;20060;-58
2023/04/30 03:46:09;;;;;;;42.75;22.52;;;12.30;99.90;;;;;;5055816;28;20504;-59
2023/04/30 03:48:36;;;;;;;44.22;21.10;;;12.20;99.90;;;;;;5070718;28;20514;-60
2023/04/30 03:51:04;;;;;;;40.47;20.02;;;12.20;99.90;;;;;;5057730;28;20045;-60
2023/04/30 03:53:33;;;;;;;42.97;20.88;;;12.20;99.90;;;;;;5055415;28;20052;-61
2023/04/30 03:56:02;;;;;;;39.55;20.45;;;12.20;99.90;;;;;;5066776;28;20045;-60
2023/04/30 03:58:31;;;;;;;36.75;18.50;;;12.10;99.90;;;;;;5070746;28;20032;-60
2023/04/30 04:00:58;;;;;;;40.55;19.27;;;12.10;99.90;;;;;;5069037;28;20044;-60
2023/04/30 04:03:26;;;;;;;37.33;17.55;;;12.10;99.90;;;;;;5083731;28;20056;-60
2023/04/30 04:05:56;;;;;;;28.08;14.77;;;12.00;99.90;;;;;;5064828;28;20048;-60
2023/04/30 04:08:27;;;;;;;32.08;16.15;;;12.00;99.90;;;;;;5065753;28;20044;-60
2023/04/30 04:10:57;;;;;;;30.98;15.90;;;12.00;99.90;;;;;;5067054;28;20037;-61
2023/04/30 04:13:25;;;;;;;37.13;14.90;;;12.00;99.90;;;;;;5070837;28;20051;-60
2023/04/30 04:15:53;;;;;;;30.95;14.93;;;11.90;99.90;;;;;;5054968;28;20400;-60
2023/04/30 04:18:21;;;;;;;31.75;15.45;;;11.90;99.90;;;;;;5062829;28;20032;-60
2023/04/30 04:20:48;;;;;;;32.50;14.35;;;11.90;99.90;;;;;;5070826;28;20047;-59
2023/04/30 04:23:17;;;;;;;34.53;16.42;;;11.80;99.90;;;;;;5054093;28;20048;-59
2023/04/30 04:25:48;;;;;;;29.85;15.05;;;11.80;99.90;;;;;;5067865;28;20060;-61
2023/04/30 04:28:16;;;;;;;32.35;14.32;;;11.70;99.90;;;;;;5050877;28;20048;-59
2023/04/30 04:30:44;;;;;;;35.22;16.40;;;11.70;99.90;;;;;;5066305;28;20051;-59
2023/04/30 04:33:12;;;;;;;31.83;15.45;;;11.70;99.90;;;;;;5067194;28;20515;-60
2023/04/30 04:35:39;;;;;;;30.23;15.98;;;11.60;99.90;;;;;;5068894;28;20048;-60
2023/04/30 04:38:08;;;;;;;35.03;17.42;;;11.60;99.90;;;;;;5065065;28;20040;-61
2023/04/30 04:40:37;;;;;;;35.50;16.52;;;11.60;99.90;;;;;;5062673;28;20048;-60
2023/04/30 04:43:06;;;;;;;35.53;17.17;;;11.50;99.90;;;;;;5070030;28;20049;-60
2023/04/30 04:45:34;;;;;;;40.22;17.13;;;11.50;99.90;;;;;;5040990;28;20444;-62
2023/04/30 04:48:02;;;;;;;35.17;16.85;;;11.40;99.90;;;;;;5046806;28;20041;-59
2023/04/30 04:50:30;;;;;;;38.33;18.38;;;11.40;99.90;;;;;;5045628;28;20048;-61
2023/04/30 04:53:01;;;;;;;40.13;20.05;;;11.30;99.90;;;;;;5015745;28;20048;-60
2023/04/30 04:55:31;;;;;;;41.05;19.95;;;11.30;99.90;;;;;;5036914;28;20048;-59
2023/04/30 04:57:59;;;;;;;45.00;20.65;;;11.30;99.90;;;;;;5022847;28;20049;-60
2023/04/30 05:00:30;;;;;;;41.45;20.05;;;11.20;99.90;;;;;;5027051;28;20611;-61
2023/04/30 05:02:57;;;;;;;40.05;18.33;;;11.20;99.90;;;;;;5015246;28;20432;-61
2023/04/30 05:05:25;;;;;;;40.97;20.02;;;11.10;99.90;;;;;;5024770;28;20049;-60
2023/04/30 05:07:53;;;;;;;44.05;20.38;;;11.10;99.90;;;;;;5017556;28;20108;-59
2023/04/30 05:10:21;;;;;;;42.53;19.88;;;11.10;99.90;;;;;;5033676;28;20616;-60
2023/04/30 05:12:49;;;;;;;48.03;20.33;;;11.10;99.90;;;;;;5024778;28;20752;-58
2023/04/30 05:15:16;;;;;;;48.97;22.27;;;11.20;99.90;;;;;;5027719;28;20071;-61
2023/04/30 05:17:47;;;;;;;52.03;22.52;;;11.20;99.90;;;;;;5024677;28;20053;-60
2023/04/30 05:20:15;;;;;;;47.97;20.80;;;11.20;99.90;;;;;;5024563;28;20049;-60
2023/04/30 05:22:42;;;;;;;43.58;19.98;;;11.20;99.90;;;;;;5040191;28;20053;-59
2023/04/30 05:25:10;;;;;;;45.20;22.10;;;11.20;99.90;;;;;;5039628;28;20045;-59
2023/04/30 05:27:38;;;;;;;42.42;20.00;;;11.20;99.90;;;;;;5032241;28;20045;-60
2023/04/30 05:30:08;;;;;;;48.83;22.08;;;11.30;99.90;;;;;;5032557;28;20128;-60
2023/04/30 05:32:35;;;;;;;40.97;20.40;;;11.30;99.90;;;;;;5030721;28;20041;-60
2023/04/30 05:35:03;;;;;;;44.92;20.05;;;11.30;99.90;;;;;;5032739;28;20515;-59
2023/04/30 05:37:31;;;;;;;38.97;19.77;;;11.40;99.90;;;;;;5044182;28;20392;-59
2023/04/30 05:39:59;;;;;;;33.28;16.10;;;11.40;99.90;;;;;;5043060;28;20045;-61
2023/04/30 05:42:27;;;;;;;38.33;17.80;;;11.40;99.90;;;;;;5043971;28;20066;-58
2023/04/30 05:44:56;;;;;;;;;;;11.40;99.90;;;;;;5041063;28;20048;-58
2023/04/30 05:47:24;;;;;;;35.20;17.10;;;11.40;99.90;;;;;;5010585;28;20372;-59
2023/04/30 05:49:52;;;;;;;38.38;15.82;;;11.50;99.90;;;;;;5047636;28;20052;-61
2023/04/30 05:52:20;;;;;;;34.88;15.68;;;11.50;99.90;;;;;;5029951;28;20049;-62
2023/04/30 05:54:48;;;;;;;33.60;16.75;;;11.50;99.90;;;;;;5012240;28;20064;-59
2023/04/30 05:57:16;;;;;;;33.17;15.90;;;11.50;99.90;;;;;;5045910;28;20049;-60
2023/04/30 05:59:44;;;;;;;28.08;14.07;;;11.50;99.90;;;;;;5038090;28;20037;-61
2023/04/30 06:02:11;;;;;;;25.90;12.63;;;11.50;99.90;;;;;;5028164;28;20037;-60
2023/04/30 06:04:39;;;;;;;30.05;13.75;;;11.50;99.90;;;;;;5027717;28;20049;-60
2023/04/30 06:07:07;;;;;;;20.70;11.32;;;11.60;99.90;;;;;;5046911;28;20056;-60
2023/04/30 06:09:35;;;;;;;29.08;12.80;;;11.50;99.90;;;;;;5028195;28;20065;-61
2023/04/30 06:12:03;;;;;;;21.60;12.18;;;11.50;99.90;;;;;;5049600;28;20045;-61
2023/04/30 06:14:31;;;;;;;22.50;11.05;;;11.50;99.90;;;;;;5050088;28;20049;-61
2023/04/30 06:16:58;;;;;;;24.10;12.98;;;11.50;99.90;;;;;;5045154;28;20050;-61
2023/04/30 06:19:26;;;;;;;20.45;10.48;;;11.50;99.90;;;;;;5033386;28;20045;-61
2023/04/30 06:21:54;;;;;;;21.83;11.32;;;11.40;99.90;;;;;;5012301;28;20069;-62
2023/04/30 06:24:21;;;;;;;25.27;12.25;;;11.40;99.90;;;;;;5036888;28;20044;-60
2023/04/30 06:26:49;;;;;;;20.05;10.57;;;11.40;99.90;;;;;;5047762;28;20427;-61
2023/04/30 06:29:17;;;;;;;22.33;11.40;;;11.40;99.90;;;;;;5049985;28;20053;-59
2023/04/30 06:31:44;;;;;;;23.80;11.40;;;11.50;99.90;;;;;;5029345;28;20064;-59
2023/04/30 06:34:13;;;;;;;19.10;10.13;;;11.50;99.90;;;;;;5033040;28;20046;-60
2023/04/30 06:36:40;;;;;;;21.25;10.05;;;11.50;99.90;;;;;;5032582;28;20064;-61
2023/04/30 06:39:08;;;;;;;21.35;10.98;;;11.60;99.90;;;;;;5038714;28;20045;-60
2023/04/30 06:41:36;;;;;;;19.02;10.30;;;11.60;99.90;;;;;;5030765;28;20042;-61
2023/04/30 06:44:09;;;;;;;22.92;10.45;;;11.60;99.90;;;;;;5022512;28;20500;-61
2023/04/30 06:46:37;;;;;;;22.10;11.68;;;11.70;99.90;;;;;;4995802;28;20064;-61
2023/04/30 06:49:04;;;;;;;19.27;9.73;;;11.70;99.90;;;;;;5037687;28;20060;-61
2023/04/30 06:51:32;;;;;;;18.92;10.50;;;11.70;99.90;;;;;;5040571;28;20057;-59
2023/04/30 06:54:00;;;;;;;16.48;9.10;;;11.80;99.90;;;;;;5033058;28;20041;-60
2023/04/30 06:56:31;;;;;;;16.42;9.38;;;11.80;99.90;;;;;;5010098;28;20060;-59
2023/04/30 06:58:59;;;;;;;16.73;9.55;;;11.90;99.90;;;;;;5047007;28;20547;-61
2023/04/30 07:01:26;;;;;;;22.30;9.63;;;11.90;99.90;;;;;;5028597;28;20397;-60
2023/04/30 07:03:54;;;;;;;20.10;9.82;;;11.90;99.90;;;;;;5027001;28;20046;-61
2023/04/30 07:06:22;;;;;;;18.08;9.52;;;12.00;99.90;;;;;;5046001;28;20055;-60
2023/04/30 07:08:50;;;;;;;28.92;10.60;;;12.00;99.90;;;;;;5032922;28;20057;-61
2023/04/30 07:11:18;;;;;;;16.58;8.93;;;13.10;99.90;;;;;;5014664;28;20060;-60
2023/04/30 07:13:45;;;;;;;20.98;9.88;;;12.10;99.90;;;;;;5019645;28;20488;-60
2023/04/30 07:16:15;;;;;;;17.83;8.00;;;12.10;99.90;;;;;;5030387;28;20041;-61
2023/04/30 07:18:43;;;;;;;21.33;9.00;;;12.20;99.90;;;;;;5031641;28;20045;-62
2023/04/30 07:21:11;;;;;;;17.70;8.85;;;12.20;99.90;;;;;;5032280;28;20041;-60
2023/04/30 07:23:40;;;;;;;13.93;8.98;;;12.20;99.90;;;;;;5035774;28;20060;-59
2023/04/30 07:26:07;;;;;;;20.45;9.73;;;12.20;99.90;;;;;;5038366;28;20060;-60
2023/04/30 07:28:35;;;;;;;16.23;8.57;;;12.20;99.90;;;;;;5043074;28;20029;-60
2023/04/30 07:31:02;;;;;;;18.67;9.98;;;12.20;99.90;;;;;;5043144;28;20105;-60
2023/04/30 07:33:30;;;;;;;18.85;9.45;;;12.20;99.90;;;;;;5029892;28;20043;-60
2023/04/30 07:35:58;;;;;;;16.05;9.85;;;12.20;99.90;;;;;;5042110;28;20044;-58
2023/04/30 07:38:25;;;;;;;15.50;8.40;;;12.20;99.90;;;;;;5015092;28;20060;-60
2023/04/30 07:40:53;;;;;;;18.27;9.75;;;12.30;99.90;;;;;;5028632;28;20515;-60
2023/04/30 07:43:21;;;;;;;12.70;8.35;;;12.20;99.90;;;;;;5026189;28;20045;-60
2023/04/30 07:45:49;;;;;;;16.42;8.75;;;12.20;99.90;;;;;;5029608;28;20056;-60
2023/04/30 07:48:17;;;;;;;20.58;9.38;;;12.20;99.90;;;;;;5036607;28;20041;-60
2023/04/30 07:50:47;;;;;;;18.52;9.13;;;12.20;99.90;;;;;;5028170;28;20404;-60
2023/04/30 07:53:17;;;;;;;21.05;8.90;;;12.20;99.90;;;;;;5024738;28;20507;-60
2023/04/30 07:55:45;;;;;;;14.30;8.05;;;12.20;99.90;;;;;;5029662;28;20052;-60
2023/04/30 07:58:13;;;;;;;15.07;8.10;;;12.20;99.90;;;;;;5039229;28;20041;-61
2023/04/30 08:00:40;;;;;;;18.70;9.00;;;12.30;99.90;;;;;;5046140;28;20040;-60
2023/04/30 08:03:08;;;;;;;15.88;8.23;;;12.20;99.90;;;;;;5046624;28;20072;-62
2023/04/30 08:05:36;;;;;;;20.13;8.63;;;12.30;99.90;;;;;;5041308;28;20037;-60
2023/04/30 08:08:04;;;;;;;15.18;7.68;;;12.30;99.90;;;;;;5048022;28;20379;-60
2023/04/30 08:10:32;;;;;;;15.52;8.32;;;12.40;99.90;;;;;;5049315;28;20059;-60
2023/04/30 08:13:00;;;;;;;14.52;7.57;;;12.40;99.90;;;;;;5048669;28;20041;-61
2023/04/30 08:15:27;;;;;;;15.95;7.40;;;12.40;99.90;;;;;;5028904;28;20053;-61
2023/04/30 08:17:57;;;;;;;13.75;7.57;;;12.50;99.90;;;;;;5027564;28;20049;-61
2023/04/30 08:20:25;;;;;;;15.07;8.57;;;12.60;99.90;;;;;;5029776;28;20075;-60
2023/04/30 08:22:52;;;;;;;12.85;7.85;;;12.60;99.90;;;;;;5027591;28;20503;-58
2023/04/30 08:25:20;;;;;;;15.80;7.75;;;12.60;99.90;;;;;;5044253;28;20045;-59
2023/04/30 08:27:48;;;;;;;14.20;8.30;;;12.50;99.90;;;;;;5019916;28;20476;-59
2023/04/30 08:30:16;;;;;;;17.25;7.75;;;12.40;99.90;;;;;;5015513;28;20522;-60
2023/04/30 08:32:43;;;;;;;13.63;7.63;;;12.30;99.90;;;;;;5047857;28;20048;-61
2023/04/30 08:35:11;;;;;;;15.50;8.07;;;12.30;99.90;;;;;;5043047;28;20079;-62
2023/04/30 08:37:39;;;;;;;17.92;9.45;;;12.30;99.90;;;;;;5048680;28;20497;-61
2023/04/30 08:40:08;;;;;;;14.63;8.43;;;12.30;99.90;;;;;;5048437;28;20044;-60
2023/04/30 08:42:43;;;;;;;18.33;9.77;;;12.20;99.90;;;;;;5019693;28;20049;-60
2023/04/30 08:45:13;;;;;;;17.42;8.27;;;12.20;99.90;;;;;;5030468;28;20056;-59
2023/04/30 08:47:42;;;;;;;;;;;12.30;99.90;;;;;;5034285;28;20037;-60
2023/04/30 08:50:09;;;;;;;16.33;8.68;;;12.20;99.90;;;;;;5036188;28;19925;-60
2023/04/30 08:52:39;;;;;;;18.50;8.73;;;12.20;99.90;;;;;;5058540;28;20045;-60
2023/04/30 08:55:07;;;;;;;16.77;8.05;;;12.20;99.90;;;;;;5066161;28;20045;-60
2023/04/30 08:57:36;;;;;;;14.05;7.65;;;12.20;99.90;;;;;;5068272;28;20036;-61
2023/04/30 09:00:06;;;;;;;14.80;8.25;;;12.10;99.90;;;;;;5059296;28;20507;-61
2023/04/30 09:02:34;;;;;;;18.92;8.55;;;12.10;99.90;;;;;;5061135;28;20059;-63
2023/04/30 09:05:02;;;;;;;16.35;8.60;;;12.10;99.90;;;;;;5057088;28;20052;-61
2023/04/30 09:07:33;;;;;;;14.40;8.43;;;12.10;99.90;;;;;;5068287;28;20045;-62
2023/04/30 09:10:02;;;;;;;19.25;8.75;;;12.20;99.90;;;;;;5061445;28;20045;-60
2023/04/30 09:12:29;;;;;;;15.98;8.15;;;12.30;99.90;;;;;;5053075;28;20048;-59
2023/04/30 09:14:58;;;;;;;17.00;9.07;;;12.30;99.90;;;;;;5063894;28;20048;-60
2023/04/30 09:17:26;;;;;;;15.98;8.32;;;12.40;99.90;;;;;;5048001;28;20045;-63
2023/04/30 09:20:10;;;;;;;13.48;8.07;;;12.40;99.90;;;;;;5051874;28;20048;-61
2023/04/30 09:22:40;;;;;;;14.98;9.07;;;12.40;99.90;;;;;;5066103;28;20036;-65
2023/04/30 09:25:08;;;;;;;14.70;8.73;;;12.40;99.90;;;;;;5066382;28;20045;-60
2023/04/30 09:27:36;;;;;;;20.20;8.35;;;12.40;99.90;;;;;;5059908;28;20052;-64
2023/04/30 09:30:04;;;;;;;15.40;8.68;;;12.30;99.90;;;;;;5064776;28;20049;-61
2023/04/30 09:32:32;;;;;;;16.40;7.18;;;12.30;99.90;;;;;;5044958;28;20049;-60
2023/04/30 09:35:00;;;;;;;15.27;7.85;;;12.20;99.90;;;;;;5045059;28;20052;-61
2023/04/30 09:37:35;;;;;;;14.50;7.70;;;12.20;99.90;;;;;;5057413;28;20063;-59
2023/04/30 09:40:04;;;;;;;14.80;7.50;;;12.20;99.90;;;;;;5052188;28;20056;-60
2023/04/30 09:42:31;;;;;;;17.42;8.45;;;12.10;99.90;;;;;;5049813;28;20056;-60
2023/04/30 09:44:59;;;;;;;19.88;7.78;;;12.10;99.90;;;;;;5062732;28;20064;-60
2023/04/30 09:47:30;;;;;;;14.82;8.10;;;12.10;99.90;;;;;;5059749;28;20044;-61
2023/04/30 09:49:59;;;;;;;15.98;8.95;;;12.10;99.90;;;;;;5052378;28;20055;-60
2023/04/30 09:52:30;;;;;;;17.50;9.10;;;12.10;99.90;;;;;;5031609;28;20052;-60
2023/04/30 09:55:01;;;;;;;16.50;8.27;;;12.00;99.90;;;;;;5023917;28;20050;-61
2023/04/30 09:57:31;;;;;;;15.38;7.47;;;11.90;99.90;;;;;;5031691;28;20044;-61
2023/04/30 10:00:00;;;;;;;16.02;8.48;;;12.00;99.90;;;;;;5040281;28;20063;-62
2023/04/30 10:02:36;;;;;;;14.65;8.35;;;11.90;99.90;;;;;;5021580;28;20045;-61
2023/04/30 10:05:06;;;;;;;15.15;8.75;;;11.90;99.90;;;;;;5010853;28;20045;-60
2023/04/30 10:07:37;;;;;;;14.20;8.40;;;11.90;99.90;;;;;;5030427;28;20034;-59
2023/04/30 10:10:09;;;;;;;14.93;8.30;;;11.80;99.90;;;;;;5007889;28;20041;-61
2023/04/30 10:13:06;;;;;;;16.10;8.00;;;11.80;99.90;;;;;;5023310;28;20056;-61
2023/04/30 10:15:38;;;;;;;17.75;8.75;;;11.80;99.90;;;;;;5035790;28;20052;-61
2023/04/30 10:18:16;;;;;;;18.15;9.07;;;11.80;99.90;;;;;;5041810;28;20040;-60
2023/04/30 10:20:49;;;;;;;18.65;8.43;;;11.80;99.90;;;;;;5029061;28;20577;-60
2023/04/30 10:23:17;;;;;;;16.80;8.15;;;11.90;99.90;;;;;;5009089;28;20500;-60
2023/04/30 10:25:46;;;;;;;15.45;8.20;;;11.80;99.90;;;;;;5036803;28;20042;-61
2023/04/30 10:28:15;;;;;;;13.40;7.88;;;11.80;99.90;;;;;;5031390;28;20044;-61
2023/04/30 10:30:43;;;;;;;14.57;8.18;;;11.80;99.90;;;;;;5033064;28;20049;-62
2023/04/30 10:33:19;;;;;;;17.98;8.00;;;11.90;99.90;;;;;;5023765;28;20053;-61
2023/04/30 10:35:58;;;;;;;17.25;9.10;;;11.90;99.90;;;;;;5031532;28;20041;-61
2023/04/30 10:38:33;;;;;;;17.08;8.45;;;12.00;99.90;;;;;;5025749;28;20049;-62
2023/04/30 10:41:02;;;;;;;21.27;10.02;;;12.20;99.90;;;;;;5024395;28;20609;-61
2023/04/30 10:43:31;;;;;;;15.75;9.43;;;12.20;99.90;;;;;;5034303;28;20053;-64
2023/04/30 10:45:59;;;;;;;26.70;10.77;;;12.30;99.90;;;;;;5041752;28;20488;-61
2023/04/30 10:48:29;;;;;;;22.25;10.52;;;12.40;99.90;;;;;;5038661;28;20045;-61
2023/04/30 10:50:59;;;;;;;19.42;10.75;;;12.50;99.90;;;;;;5031533;28;20064;-62
2023/04/30 10:53:30;;;;;;;19.00;10.45;;;12.60;99.90;;;;;;5024847;28;20635;-61
2023/04/30 10:56:05;;;;;;;19.30;10.85;;;12.80;99.90;;;;;;5025401;28;20481;-60
2023/04/30 10:58:35;;;;;;;18.33;10.35;;;13.00;99.90;;;;;;5029689;28;20041;-62
2023/04/30 11:01:12;;;;;;;21.10;11.30;;;13.10;99.90;;;;;;5042769;28;20488;-62
2023/04/30 11:03:42;;;;;;;20.02;10.95;;;13.50;99.90;;;;;;5036520;28;20045;-60
2023/04/30 11:06:14;;;;;;;22.08;10.38;;;13.50;99.90;;;;;;5027706;28;20056;-61
2023/04/30 11:08:47;;;;;;;20.35;11.68;;;13.70;99.90;;;;;;5038713;28;20051;-61
2023/04/30 11:11:19;;;;;;;20.23;11.60;;;13.80;99.90;;;;;;5013551;28;20057;-61
2023/04/30 11:13:58;;;;;;;18.05;11.25;;;13.90;99.90;;;;;;5029218;28;20319;-63
2023/04/30 11:16:32;;;;;;;18.48;11.05;;;13.90;99.90;;;;;;5047224;28;20709;-61
2023/04/30 11:19:10;;;;;;;17.80;11.25;;;13.90;99.90;;;;;;5015182;28;20049;-62
2023/04/30 11:22:01;;;;;;;20.23;11.48;;;14.00;99.90;;;;;;5043759;28;20400;-60
2023/04/30 11:24:58;;;;;;;22.17;12.60;;;14.00;99.90;;;;;;5046805;28;20284;-62
2023/04/30 11:27:28;;;;;;;17.45;10.70;;;14.10;99.90;;;;;;5044512;28;20328;-62
2023/04/30 11:29:58;;;;;;;19.08;11.93;;;14.10;99.90;;;;;;5038073;28;20052;-63
2023/04/30 11:32:33;;;;;;;16.63;9.40;;;14.10;99.90;;;;;;5023192;28;20069;-62
2023/04/30 11:35:03;;;;;;;15.80;10.00;;;14.20;99.90;;;;;;5015255;28;20049;-60
2023/04/30 11:37:37;;;;;;;17.25;10.20;;;14.30;99.90;;;;;;5030059;28;20126;-62
2023/04/30 11:40:08;;;;;;;17.00;10.02;;;11.90;99.90;;;;;;5034253;28;20045;-62
2023/04/30 11:42:40;;;;;;;19.10;11.05;;;14.30;99.90;;;;;;5026306;28;20049;-61
2023/04/30 11:45:19;;;;;;;19.40;9.65;;;14.40;99.90;;;;;;5027438;28;20037;-59
2023/04/30 11:47:49;;;;;;;15.30;9.88;;;14.40;99.90;;;;;;5045285;28;20064;-62
2023/04/30 11:50:28;;;;;;;17.00;9.43;;;14.40;99.90;;;;;;5033134;28;20507;-61
2023/04/30 11:53:04;;;;;;;15.82;9.02;;;14.40;99.90;;;;;;5027921;28;20041;-63
2023/04/30 11:55:33;;;;;;;14.18;9.18;;;14.40;99.90;;;;;;5036628;28;20045;-60
2023/04/30 11:58:01;;;;;;;15.73;8.85;;;14.30;99.90;;;;;;5045537;28;20064;-61
2023/04/30 12:00:30;;;;;;;16.20;9.25;;;14.30;99.90;;;;;;5035593;28;20378;-62
2023/04/30 12:03:03;;;;;;;13.13;9.00;;;14.20;99.90;;;;;;5046126;28;20473;-60
2023/04/30 12:05:34;;;;;;;19.40;10.35;;;14.20;99.90;;;;;;5036644;28;20042;-64
2023/04/30 12:08:07;;;;;;;18.80;10.60;;;14.10;99.90;;;;;;5030464;28;20052;-60
2023/04/30 12:10:35;;;;;;;18.40;10.98;;;14.00;99.90;;;;;;5035602;28;20041;-59
2023/04/30 12:13:03;;;;;;;19.42;10.63;;;13.80;99.90;;;;;;5039061;28;20037;-61
2023/04/30 12:15:32;;;;;;;16.27;9.13;;;13.70;99.90;;;;;;5022924;28;20053;-62
2023/04/30 12:18:14;;;;;;;17.70;9.57;;;13.70;99.90;;;;;;5044264;28;20064;-62
2023/04/30 12:20:42;;;;;;;11.68;6.72;;;13.60;99.90;;;;;;5011599;28;20607;-62
2023/04/30 12:23:09;;;;;;;14.60;7.20;;;13.50;99.90;;;;;;5036442;28;20069;-61
2023/04/30 12:25:42;;;;;;;13.18;6.85;;;13.40;99.90;;;;;;5041651;28;20622;-64
2023/04/30 12:28:10;;;;;;;11.50;7.05;;;13.40;99.90;;;;;;5043606;28;20052;-60
2023/04/30 12:30:38;;;;;;;11.02;7.45;;;13.30;99.90;;;;;;5034225;28;20405;-62
2023/04/30 12:33:10;;;;;;;15.35;8.68;;;13.30;99.90;;;;;;5044099;28;20053;-65
2023/04/30 12:35:42;;;;;;;17.85;8.80;;;13.20;99.90;;;;;;5028630;28;20049;-62
2023/04/30 12:38:10;;;;;;;16.33;9.05;;;13.20;99.90;;;;;;5032143;28;20060;-60
2023/04/30 12:40:37;;;;;;;36.45;15.93;;;13.10;99.90;;;;;;5034913;28;20320;-59
2023/04/30 12:43:07;;;;;;;45.15;19.85;;;13.10;99.90;;;;;;5024279;28;20049;-62
2023/04/30 12:45:49;;;;;;;42.58;18.77;;;13.00;99.90;;;;;;5023413;28;20265;-60